createdAt,value
2018-07-13T00:00:42.011Z,7.03
2018-07-13T00:03:10.587Z,6.30
2018-07-13T00:05:39.203Z,6.40
2018-07-13T00:08:07.636Z,7.10
2018-07-13T00:10:36.137Z,6.63
2018-07-13T00:13:04.900Z,6.50
2018-07-13T00:15:33.559Z,6.30
2018-07-13T00:18:02.109Z,7.00
2018-07-13T00:20:30.579Z,6.50
2018-07-13T00:22:59.236Z,6.53
2018-07-13T00:25:28.114Z,6.53
2018-07-13T00:27:56.547Z,5.97
2018-07-13T00:30:25.114Z,7.23
2018-07-13T00:32:53.676Z,7.03
2018-07-13T00:35:22.504Z,6.93
2018-07-13T00:37:50.952Z,6.80
2018-07-13T00:40:19.619Z,7.43
2018-07-13T00:42:48.287Z,6.93
2018-07-13T00:45:16.839Z,7.83
2018-07-13T00:47:45.442Z,6.40
2018-07-13T00:50:13.898Z,6.87
2018-07-13T00:52:42.438Z,7.87
2018-07-13T00:55:10.983Z,7.93
2018-07-13T00:57:39.721Z,7.00
2018-07-13T01:00:08.455Z,7.77
2018-07-13T01:02:37.222Z,7.33
2018-07-13T01:05:06.084Z,6.43
2018-07-13T01:07:34.598Z,7.67
2018-07-13T01:10:03.436Z,7.80
2018-07-13T01:12:32.155Z,7.50
2018-07-13T01:15:00.646Z,6.73
2018-07-13T01:17:29.162Z,7.50
2018-07-13T01:19:57.580Z,7.83
2018-07-13T01:22:26.136Z,8.00
2018-07-13T01:24:54.635Z,8.07
2018-07-13T01:27:26.942Z,7.27
2018-07-13T01:29:56.080Z,7.83
2018-07-13T01:32:25.073Z,7.37
2018-07-13T01:34:53.934Z,7.73
2018-07-13T01:37:22.893Z,8.30
2018-07-13T01:39:51.394Z,7.57
2018-07-13T01:42:19.922Z,8.27
2018-07-13T01:44:48.361Z,8.00
2018-07-13T01:47:16.893Z,7.93
2018-07-13T01:49:45.340Z,7.97
2018-07-13T01:52:14.345Z,8.23
2018-07-13T01:54:42.956Z,8.67
2018-07-13T01:57:11.971Z,8.33
2018-07-13T01:59:40.551Z,8.93
2018-07-13T02:02:09.125Z,7.57
2018-07-13T02:04:37.852Z,8.00
2018-07-13T02:07:06.613Z,8.97
2018-07-13T02:09:35.428Z,9.53
2018-07-13T02:12:03.926Z,8.57
2018-07-13T02:14:32.651Z,8.77
2018-07-13T02:17:01.179Z,8.77
2018-07-13T02:19:29.716Z,9.93
2018-07-13T02:21:58.553Z,9.20
2018-07-13T02:24:27.357Z,8.80
2018-07-13T02:26:55.775Z,8.30
2018-07-13T02:29:24.850Z,8.80
2018-07-13T02:31:53.347Z,9.73
2018-07-13T02:34:21.831Z,10.17
2018-07-13T02:36:50.409Z,9.60
2018-07-13T02:39:18.941Z,9.53
2018-07-13T02:41:47.378Z,11.13
2018-07-13T02:44:15.996Z,9.87
2018-07-13T02:46:44.577Z,10.50
2018-07-13T02:49:13.532Z,10.10
2018-07-13T02:51:42.220Z,9.70
2018-07-13T02:54:10.823Z,10.03
2018-07-13T02:56:39.654Z,10.13
2018-07-13T02:59:08.442Z,11.03
2018-07-13T03:01:37.169Z,10.43
2018-07-13T03:04:06.237Z,10.80
2018-07-13T03:06:34.992Z,11.00
2018-07-13T03:09:04.555Z,10.97
2018-07-13T03:11:33.225Z,11.00
2018-07-13T03:14:01.717Z,11.40
2018-07-13T03:16:30.244Z,11.43
2018-07-13T03:18:58.773Z,11.73
2018-07-13T03:21:27.452Z,11.37
2018-07-13T03:23:55.928Z,10.77
2018-07-13T03:26:24.533Z,11.63
2018-07-13T03:28:53.113Z,11.17
2018-07-13T03:31:21.653Z,12.20
2018-07-13T03:33:50.205Z,12.00
2018-07-13T03:36:18.361Z,12.13
2018-07-13T03:38:47.305Z,12.83
2018-07-13T03:41:16.148Z,12.87
2018-07-13T03:43:44.668Z,13.00
2018-07-13T03:46:13.154Z,12.67
2018-07-13T03:48:41.678Z,13.07
2018-07-13T03:51:10.253Z,12.27
2018-07-13T03:53:38.734Z,12.30
2018-07-13T03:56:07.218Z,10.97
2018-07-13T03:58:35.711Z,12.40
2018-07-13T04:01:04.475Z,12.30
2018-07-13T04:03:33.635Z,11.60
2018-07-13T04:06:02.422Z,10.77
2018-07-13T04:08:31.623Z,11.50
2018-07-13T04:11:00.362Z,12.47
2018-07-13T04:13:29.110Z,11.07
2018-07-13T04:15:57.953Z,10.40
2018-07-13T04:18:26.902Z,10.60
2018-07-13T04:20:55.608Z,10.30
2018-07-13T04:23:24.968Z,10.07
2018-07-13T04:25:53.877Z,9.60
2018-07-13T04:28:22.688Z,8.53
2018-07-13T04:30:51.537Z,9.00
2018-07-13T04:33:20.018Z,8.90
2018-07-13T04:35:48.671Z,8.83
2018-07-13T04:38:17.405Z,8.00
2018-07-13T04:40:45.863Z,8.23
2018-07-13T04:43:14.538Z,7.87
2018-07-13T04:45:43.464Z,8.97
2018-07-13T04:48:12.560Z,7.50
2018-07-13T04:50:41.112Z,9.80
2018-07-13T04:53:10.422Z,8.07
2018-07-13T04:55:39.597Z,8.50
2018-07-13T04:58:08.538Z,8.50
2018-07-13T05:00:37.979Z,7.80
2018-07-13T05:03:06.847Z,7.47
2018-07-13T05:05:36.248Z,7.47
2018-07-13T05:08:04.975Z,8.37
2018-07-13T05:10:33.596Z,7.30
2018-07-13T05:13:01.890Z,7.47
2018-07-13T05:15:30.448Z,7.83
2018-07-13T05:17:59.289Z,8.43
2018-07-13T05:20:28.077Z,8.50
2018-07-13T05:22:56.953Z,7.83
2018-07-13T05:25:25.782Z,8.07
2018-07-13T05:27:54.769Z,8.87
2018-07-13T05:30:23.643Z,8.23
2018-07-13T05:32:52.524Z,8.20
2018-07-13T05:35:21.940Z,7.93
2018-07-13T05:37:52.031Z,7.47
2018-07-13T05:40:20.919Z,8.03
2018-07-13T05:42:49.698Z,8.37
2018-07-13T05:45:18.463Z,8.27
2018-07-13T05:47:46.947Z,8.33
2018-07-13T05:50:15.573Z,9.20
2018-07-13T05:52:44.566Z,8.20
2018-07-13T05:55:13.687Z,8.83
2018-07-13T05:57:42.662Z,8.57
2018-07-13T06:00:11.444Z,8.33
2018-07-13T06:02:40.901Z,9.10
2018-07-13T06:05:10.567Z,8.63
2018-07-13T06:07:39.685Z,9.40
2018-07-13T06:10:08.687Z,8.30
2018-07-13T06:12:37.509Z,8.93
2018-07-13T06:15:06.882Z,8.50
2018-07-13T06:17:35.803Z,8.73
2018-07-13T06:20:05.432Z,8.97
2018-07-13T06:22:34.152Z,9.53
2018-07-13T06:25:03.177Z,8.60
2018-07-13T06:27:32.250Z,8.87
2018-07-13T06:30:01.612Z,9.43
2018-07-13T06:32:31.039Z,9.23
2018-07-13T06:35:00.251Z,9.20
2018-07-13T06:37:28.918Z,9.13
2018-07-13T06:39:58.010Z,8.20
2018-07-13T06:42:26.585Z,9.15
2018-07-13T06:44:55.347Z,8.00
2018-07-13T06:47:24.056Z,8.43
2018-07-13T06:49:52.926Z,8.43
2018-07-13T06:52:22.070Z,8.85
2018-07-13T06:54:50.825Z,8.88
2018-07-13T06:57:30.793Z,8.98
2018-07-13T06:59:59.659Z,8.18
2018-07-13T07:02:40.934Z,9.38
2018-07-13T07:06:22.539Z,8.23
2018-07-13T07:08:52.123Z,7.72
2018-07-13T07:11:21.402Z,7.78
2018-07-13T07:13:50.577Z,7.55
2018-07-13T07:16:19.375Z,7.67
2018-07-13T07:18:48.640Z,6.80
2018-07-13T07:21:17.589Z,6.70
2018-07-13T07:23:46.362Z,6.08
2018-07-13T07:26:15.222Z,6.75
2018-07-13T07:28:43.734Z,5.97
2018-07-13T07:31:12.813Z,5.20
2018-07-13T07:33:42.235Z,5.47
2018-07-13T07:36:10.935Z,5.33
2018-07-13T07:38:39.443Z,6.15
2018-07-13T07:41:08.010Z,4.87
2018-07-13T07:43:36.612Z,4.55
2018-07-13T07:46:04.817Z,5.70
2018-07-13T07:48:33.292Z,5.53
2018-07-13T07:51:01.845Z,5.75
2018-07-13T07:53:30.386Z,5.28
2018-07-13T07:55:58.878Z,5.22
2018-07-13T07:58:27.421Z,5.40
2018-07-13T08:00:56.251Z,4.45
2018-07-13T08:03:24.950Z,5.03
2018-07-13T08:05:53.424Z,4.60
2018-07-13T08:08:22.128Z,3.80
2018-07-13T08:10:50.939Z,4.10
2018-07-13T08:13:19.592Z,4.70
2018-07-13T08:15:48.242Z,4.90
2018-07-13T08:18:16.688Z,4.17
2018-07-13T08:20:48.648Z,3.62
2018-07-13T08:23:18.685Z,4.08
2018-07-13T08:25:49.261Z,4.10
2018-07-13T08:28:18.433Z,4.30
2018-07-13T08:30:57.728Z,4.37
2018-07-13T08:33:26.543Z,4.75
2018-07-13T08:35:55.263Z,4.37
2018-07-13T08:38:24.013Z,3.92
2018-07-13T08:40:52.752Z,4.30
2018-07-13T08:43:22.162Z,4.78
2018-07-13T08:45:51.257Z,4.97
2018-07-13T08:48:20.725Z,4.20
2018-07-13T08:50:50.309Z,4.83
2018-07-13T08:53:19.324Z,4.60
2018-07-13T08:55:47.881Z,4.70
2018-07-13T08:58:17.298Z,4.65
2018-07-13T09:00:45.932Z,4.40
2018-07-13T09:03:14.751Z,3.67
2018-07-13T09:05:43.886Z,3.70
2018-07-13T09:08:12.466Z,3.25
2018-07-13T09:10:41.666Z,3.05
2018-07-13T09:13:10.150Z,2.95
2018-07-13T09:15:38.986Z,3.05
2018-07-13T09:18:07.835Z,3.05
2018-07-13T09:20:36.495Z,2.62
2018-07-13T09:23:04.633Z,2.62
2018-07-13T09:25:36.267Z,2.95
2018-07-13T09:28:05.069Z,2.90
2018-07-13T09:30:33.801Z,2.80
2018-07-13T09:33:02.541Z,3.12
2018-07-13T09:35:31.045Z,2.70
2018-07-13T09:37:59.889Z,3.00
2018-07-13T09:40:28.967Z,3.12
2018-07-13T09:43:00.258Z,3.15
2018-07-13T09:45:29.520Z,2.75
2018-07-13T09:47:58.791Z,2.22
2018-07-13T09:50:27.852Z,3.02
2018-07-13T09:52:56.780Z,2.50
2018-07-13T09:55:25.607Z,2.42
2018-07-13T09:57:54.704Z,2.58
2018-07-13T10:00:28.408Z,2.90
2018-07-13T10:02:57.105Z,2.67
2018-07-13T10:05:25.849Z,3.87
2018-07-13T10:07:54.843Z,2.20
2018-07-13T10:10:24.007Z,2.30
2018-07-13T10:12:54.341Z,3.10
2018-07-13T10:15:23.558Z,2.40
2018-07-13T10:17:53.246Z,3.02
2018-07-13T10:20:22.595Z,2.00
2018-07-13T10:22:52.115Z,2.60
2018-07-13T10:25:21.536Z,3.00
2018-07-13T10:27:51.264Z,2.65
2018-07-13T10:30:20.809Z,2.58
2018-07-13T10:32:50.382Z,2.52
2018-07-13T10:35:19.600Z,2.33
2018-07-13T10:37:49.262Z,2.22
2018-07-13T10:40:18.339Z,2.58
2018-07-13T10:42:47.664Z,2.72
2018-07-13T10:45:17.158Z,2.42
2018-07-13T10:47:47.282Z,2.40
2018-07-13T10:50:16.252Z,2.60
2018-07-13T10:52:45.592Z,2.65
2018-07-13T10:55:14.918Z,1.85
2018-07-13T10:57:43.819Z,2.40
2018-07-13T11:00:13.399Z,2.30
2018-07-13T11:02:42.434Z,2.22
2018-07-13T11:05:11.793Z,2.27
2018-07-13T11:07:44.428Z,2.25
2018-07-13T11:10:13.400Z,2.47
2018-07-13T11:12:42.716Z,2.67
2018-07-13T11:15:11.668Z,2.67
2018-07-13T11:17:40.397Z,2.20
2018-07-13T11:20:09.802Z,2.25
2018-07-13T11:22:39.183Z,2.40
2018-07-13T11:25:08.710Z,2.57
2018-07-13T11:27:37.831Z,2.30
2018-07-13T11:30:06.413Z,2.53
2018-07-13T11:32:35.458Z,2.80
2018-07-13T11:35:04.505Z,2.77
2018-07-13T11:37:34.181Z,3.73
2018-07-13T11:40:02.655Z,2.30
2018-07-13T11:42:31.610Z,2.60
2018-07-13T11:45:00.578Z,2.33
2018-07-13T11:47:29.218Z,2.67
2018-07-13T11:49:57.945Z,2.50
2018-07-13T11:52:26.623Z,3.63
2018-07-13T11:54:55.147Z,2.90
2018-07-13T11:57:23.736Z,2.50
2018-07-13T11:59:52.607Z,2.60
2018-07-13T12:02:21.701Z,2.33
2018-07-13T12:04:50.425Z,3.07
2018-07-13T12:07:19.187Z,2.40
2018-07-13T12:09:47.814Z,2.53
2018-07-13T12:12:16.335Z,2.57
2018-07-13T12:14:45.009Z,2.50
2018-07-13T12:17:13.596Z,2.60
2018-07-13T12:19:42.367Z,2.97
2018-07-13T12:22:10.900Z,3.20
2018-07-13T12:24:39.548Z,2.97
2018-07-13T12:27:08.073Z,3.20
2018-07-13T12:29:36.643Z,3.13
2018-07-13T12:32:05.265Z,2.60
2018-07-13T12:34:33.894Z,3.43
2018-07-13T12:37:02.521Z,2.80
2018-07-13T12:39:31.084Z,3.77
2018-07-13T12:41:59.625Z,3.20
2018-07-13T12:44:28.430Z,3.13
2018-07-13T12:46:57.035Z,2.40
2018-07-13T12:49:26.337Z,2.83
2018-07-13T12:51:55.242Z,3.00
2018-07-13T12:54:24.228Z,2.60
2018-07-13T12:56:52.824Z,2.93
2018-07-13T12:59:23.145Z,3.17
2018-07-13T13:01:51.759Z,3.03
2018-07-13T13:04:20.663Z,2.87
2018-07-13T13:06:50.089Z,3.40
2018-07-13T13:09:18.586Z,2.30
2018-07-13T13:11:46.842Z,2.30
2018-07-13T13:14:16.312Z,2.70
2018-07-13T13:16:44.909Z,2.87
2018-07-13T13:19:13.641Z,3.07
2018-07-13T13:21:42.296Z,2.90
2018-07-13T13:24:11.101Z,4.30
2018-07-13T13:26:39.732Z,15.20
2018-07-13T13:29:08.417Z,2.90
2018-07-13T13:31:37.046Z,2.97
2018-07-13T13:34:05.743Z,3.13
2018-07-13T13:36:34.453Z,2.77
2018-07-13T13:39:03.344Z,2.53
2018-07-13T13:41:32.185Z,6.73
2018-07-13T13:44:01.115Z,3.13
2018-07-13T13:46:29.647Z,12.20
2018-07-13T13:48:58.277Z,2.90
2018-07-13T13:51:27.001Z,3.33
2018-07-13T13:53:55.697Z,2.83
2018-07-13T13:56:24.394Z,2.77
2018-07-13T13:58:53.707Z,2.47
2018-07-13T14:01:22.446Z,2.57
2018-07-13T14:03:51.162Z,2.40
2018-07-13T14:06:19.739Z,2.40
2018-07-13T14:08:48.397Z,3.77
2018-07-13T14:11:16.929Z,2.30
2018-07-13T14:13:45.562Z,2.83
2018-07-13T14:16:14.411Z,2.73
2018-07-13T14:18:43.228Z,2.27
2018-07-13T14:21:11.903Z,2.40
2018-07-13T14:23:40.747Z,2.67
2018-07-13T14:26:09.339Z,2.73
2018-07-13T14:28:37.995Z,2.77
2018-07-13T14:31:06.553Z,2.40
2018-07-13T14:33:35.108Z,2.30
2018-07-13T14:36:03.743Z,2.53
2018-07-13T14:38:32.293Z,2.50
2018-07-13T14:41:01.049Z,2.50
2018-07-13T14:43:29.541Z,2.40
2018-07-13T14:45:58.284Z,2.50
2018-07-13T14:48:26.892Z,2.60
2018-07-13T14:50:55.764Z,2.20
2018-07-13T14:53:24.342Z,2.43
2018-07-13T14:55:52.793Z,2.67
2018-07-13T14:58:21.996Z,2.60
2018-07-13T15:00:51.061Z,2.93
2018-07-13T15:03:19.666Z,2.80
2018-07-13T15:05:48.514Z,3.23
2018-07-13T15:08:16.988Z,2.77
2018-07-13T15:10:46.003Z,2.80
2018-07-13T15:13:14.649Z,3.00
2018-07-13T15:15:43.384Z,2.20
2018-07-13T15:18:12.007Z,2.93
2018-07-13T15:20:40.584Z,2.67
2018-07-13T15:23:08.756Z,3.27
2018-07-13T15:25:37.304Z,2.73
2018-07-13T15:28:05.984Z,2.53
2018-07-13T15:30:34.737Z,2.47
2018-07-13T15:33:03.229Z,2.53
2018-07-13T15:35:32.049Z,2.83
2018-07-13T15:38:00.618Z,2.60
2018-07-13T15:40:29.319Z,2.80
2018-07-13T15:42:57.822Z,2.77
2018-07-13T15:45:26.544Z,2.73
2018-07-13T15:47:55.512Z,2.43
2018-07-13T15:50:25.257Z,2.80
2018-07-13T15:52:53.928Z,3.37
2018-07-13T15:55:26.246Z,3.37
2018-07-13T15:57:54.463Z,3.10
2018-07-13T16:00:23.178Z,2.80
2018-07-13T16:02:51.673Z,3.23
2018-07-13T16:05:20.326Z,3.27
2018-07-13T16:07:48.811Z,3.00
2018-07-13T16:10:17.673Z,2.90
2018-07-13T16:12:46.286Z,3.07
2018-07-13T16:15:14.873Z,2.97
2018-07-13T16:17:43.519Z,2.73
2018-07-13T16:20:12.578Z,3.10
2018-07-13T16:22:41.217Z,3.20
2018-07-13T16:25:10.064Z,3.47
2018-07-13T16:27:38.597Z,2.70
2018-07-13T16:30:07.492Z,3.07
2018-07-13T16:32:36.801Z,3.00
2018-07-13T16:35:05.603Z,4.53
2018-07-13T16:37:34.232Z,3.17
2018-07-13T16:40:09.424Z,2.97
2018-07-13T16:42:38.090Z,3.03
2018-07-13T16:45:07.149Z,2.80
2018-07-13T16:47:35.737Z,3.03
2018-07-13T16:50:04.506Z,2.60
2018-07-13T16:52:33.008Z,3.20
2018-07-13T16:55:01.553Z,3.57
2018-07-13T16:57:30.076Z,3.07
2018-07-13T16:59:58.740Z,2.70
2018-07-13T17:02:28.456Z,3.20
2018-07-13T17:04:56.945Z,3.00
2018-07-13T17:07:26.009Z,2.97
2018-07-13T17:09:54.679Z,3.47
2018-07-13T17:12:23.435Z,4.67
2018-07-13T17:14:51.934Z,3.80
2018-07-13T17:17:20.521Z,4.33
2018-07-13T17:19:48.943Z,3.17
2018-07-13T17:22:17.581Z,3.20
2018-07-13T17:24:45.748Z,3.23
2018-07-13T17:27:14.593Z,3.00
2018-07-13T17:29:43.302Z,3.37
2018-07-13T17:32:12.205Z,2.67
2018-07-13T17:34:40.792Z,3.03
2018-07-13T17:37:09.374Z,3.07
2018-07-13T17:39:38.092Z,3.07
2018-07-13T17:42:06.679Z,3.37
2018-07-13T17:44:35.153Z,3.30
2018-07-13T17:47:03.909Z,3.73
2018-07-13T17:49:33.209Z,3.63
2018-07-13T17:52:01.861Z,4.27
2018-07-13T17:54:31.039Z,4.17
2018-07-13T17:56:59.646Z,3.37
2018-07-13T17:59:28.443Z,3.30
2018-07-13T18:01:57.021Z,3.10
2018-07-13T18:04:25.612Z,3.20
2018-07-13T18:06:54.409Z,3.33
2018-07-13T18:09:23.218Z,4.67
2018-07-13T18:11:52.080Z,4.73
2018-07-13T18:14:20.827Z,3.00
2018-07-13T18:16:49.753Z,3.43
2018-07-13T18:19:18.110Z,3.43
2018-07-13T18:21:46.887Z,3.83
2018-07-13T18:24:15.634Z,4.17
2018-07-13T18:26:44.275Z,5.37
2018-07-13T18:29:13.413Z,4.33
2018-07-13T18:31:42.048Z,3.27
2018-07-13T18:34:10.757Z,3.37
2018-07-13T18:36:39.271Z,2.87
2018-07-13T18:39:08.666Z,3.67
2018-07-13T18:41:37.337Z,3.40
2018-07-13T18:44:05.883Z,2.87
2018-07-13T18:46:34.901Z,3.07
2018-07-13T18:49:03.189Z,3.70
2018-07-13T18:51:31.944Z,3.47
2018-07-13T18:54:00.569Z,3.00
2018-07-13T18:56:29.196Z,2.93
2018-07-13T18:58:58.256Z,3.90
2018-07-13T19:01:26.878Z,3.60
2018-07-13T19:03:55.775Z,3.37
2018-07-13T19:06:24.331Z,3.80
2018-07-13T19:08:53.194Z,3.03
2018-07-13T19:11:22.484Z,3.43
2018-07-13T19:13:51.506Z,3.47
2018-07-13T19:16:20.651Z,3.63
2018-07-13T19:18:49.283Z,3.40
2018-07-13T19:21:18.197Z,3.47
2018-07-13T19:23:46.968Z,3.20
2018-07-13T19:26:15.720Z,3.30
2018-07-13T19:28:44.308Z,3.27
2018-07-13T19:31:12.962Z,3.83
2018-07-13T19:33:41.792Z,3.70
2018-07-13T19:36:10.468Z,3.90
2018-07-13T19:38:39.512Z,4.20
2018-07-13T19:41:14.690Z,3.60
2018-07-13T19:43:43.518Z,3.43
2018-07-13T19:46:12.140Z,3.20
2018-07-13T19:48:40.825Z,3.30
2018-07-13T19:51:09.496Z,2.97
2018-07-13T19:53:38.249Z,3.47
2018-07-13T19:56:07.095Z,3.83
2018-07-13T19:58:35.934Z,4.27
2018-07-13T20:01:04.623Z,4.00
2018-07-13T20:03:33.295Z,4.23
2018-07-13T20:06:01.970Z,3.77
2018-07-13T20:08:31.107Z,4.60
2018-07-13T20:10:59.662Z,4.20
2018-07-13T20:13:28.257Z,4.47
2018-07-13T20:15:56.906Z,4.47
2018-07-13T20:18:25.938Z,5.07
2018-07-13T20:20:54.708Z,5.00
2018-07-13T20:23:23.453Z,5.00
2018-07-13T20:25:52.090Z,4.90
2018-07-13T20:28:20.713Z,5.03
2018-07-13T20:30:49.442Z,5.37
2018-07-13T20:33:18.192Z,4.90
2018-07-13T20:35:46.702Z,4.67
2018-07-13T20:38:15.567Z,4.83
2018-07-13T20:40:44.203Z,4.57
2018-07-13T20:43:13.234Z,4.63
2018-07-13T20:45:42.618Z,4.77
2018-07-13T20:48:11.407Z,6.63
2018-07-13T20:50:40.075Z,5.50
2018-07-13T20:53:09.605Z,5.00
2018-07-13T20:55:38.268Z,5.10
2018-07-13T20:58:07.723Z,4.93
2018-07-13T21:00:36.281Z,5.37
2018-07-13T21:03:05.374Z,4.90
2018-07-13T21:05:33.876Z,5.40
2018-07-13T21:08:02.519Z,5.87
2018-07-13T21:10:31.384Z,5.90
2018-07-13T21:12:59.773Z,5.60
2018-07-13T21:15:28.877Z,6.30
2018-07-13T21:17:57.444Z,5.90
2018-07-13T21:20:26.351Z,5.63
2018-07-13T21:22:55.094Z,5.67
2018-07-13T21:25:23.696Z,6.03
2018-07-13T21:27:52.660Z,5.37
2018-07-13T21:30:21.282Z,5.07
2018-07-13T21:32:50.014Z,5.10
2018-07-13T21:35:18.977Z,6.23
2018-07-13T21:37:47.605Z,5.57
2018-07-13T21:40:16.293Z,4.90
2018-07-13T21:42:45.094Z,5.37
2018-07-13T21:45:14.113Z,6.13
2018-07-13T21:47:42.741Z,6.60
2018-07-13T21:50:11.436Z,6.37
2018-07-13T21:52:46.665Z,5.83
2018-07-13T21:55:15.370Z,6.20
2018-07-13T21:57:44.037Z,5.80
2018-07-13T22:00:12.788Z,5.53
2018-07-13T22:02:41.347Z,5.90
2018-07-13T22:05:10.125Z,6.10
2018-07-13T22:07:39.082Z,5.50
2018-07-13T22:10:08.253Z,5.83
2018-07-13T22:12:37.036Z,5.50
2018-07-13T22:15:06.000Z,6.57
2018-07-13T22:17:34.880Z,5.83
2018-07-13T22:20:03.404Z,6.00
2018-07-13T22:22:32.064Z,6.03
2018-07-13T22:25:00.550Z,6.60
2018-07-13T22:27:29.429Z,5.90
2018-07-13T22:29:58.036Z,5.97
2018-07-13T22:32:26.918Z,5.80
2018-07-13T22:34:55.547Z,6.67
2018-07-13T22:37:24.197Z,6.23
2018-07-13T22:39:53.044Z,6.57
2018-07-13T22:42:21.765Z,6.00
2018-07-13T22:44:51.019Z,6.03
2018-07-13T22:47:19.856Z,6.57
2018-07-13T22:49:48.613Z,6.20
2018-07-13T22:52:17.552Z,6.27
2018-07-13T22:54:46.341Z,6.20
2018-07-13T22:57:15.197Z,6.57
2018-07-13T22:59:43.713Z,6.60
2018-07-13T23:02:12.691Z,6.07
2018-07-13T23:04:41.507Z,6.03
2018-07-13T23:07:10.132Z,6.73
2018-07-13T23:09:38.696Z,6.30
2018-07-13T23:12:07.549Z,6.87
2018-07-13T23:14:37.350Z,7.27
2018-07-13T23:17:06.150Z,6.30
2018-07-13T23:19:34.818Z,7.03
2018-07-13T23:22:03.371Z,6.30
2018-07-13T23:24:32.226Z,6.53
2018-07-13T23:27:00.997Z,6.73
2018-07-13T23:29:29.197Z,5.93
2018-07-13T23:31:57.831Z,6.30
2018-07-13T23:34:32.865Z,6.50
2018-07-13T23:37:01.671Z,6.70
2018-07-13T23:39:30.769Z,7.03
2018-07-13T23:41:59.378Z,6.00
2018-07-13T23:44:28.418Z,6.07
2018-07-13T23:46:57.597Z,6.10
2018-07-13T23:49:26.231Z,6.23
2018-07-13T23:51:55.246Z,6.37
2018-07-13T23:54:24.034Z,6.60
2018-07-13T23:56:53.298Z,5.87
2018-07-13T23:59:21.809Z,6.70
